Time;durP1;ratioP1;P1;durP2;ratioP2;P2;SDS_P1;SDS_P2;PMS_P1;PMS_P2;Temp;Humidity;BMP_temperature;BMP_pressure;BME280_temperature;BME280_humidity;BME280_pressure;Samples;Min_cycle;Max_cycle;Signal;HPM_P1;HPM_P2
2022/01/25 00:26:39;;;;;;;39.83;22.95;;;-14.00;99.90;;;;;;4409684;32;20457;-64
2022/01/25 00:31:14;;;;;;;41.53;22.70;;;-14.00;99.90;;;;;;4394541;32;19984;-65
2022/01/25 00:33:51;;;;;;;31.45;19.37;;;-14.10;99.90;;;;;;4395866;32;20073;-65
2022/01/25 00:36:21;;;;;;;26.92;17.27;;;-14.30;99.90;;;;;;4408647;32;20088;-64
2022/01/25 00:38:48;;;;;;;23.62;14.80;;;-14.50;99.90;;;;;;4407459;32;20069;-64
2022/01/25 00:41:17;;;;;;;25.77;15.90;;;-14.50;99.90;;;;;;4407738;32;20080;-63
2022/01/25 00:43:45;;;;;;;26.45;15.13;;;-14.60;99.90;;;;;;4407485;32;20088;-63
2022/01/25 00:46:12;;;;;;;27.73;18.80;;;-14.60;99.90;;;;;;4394471;32;20557;-64
2022/01/25 00:48:46;;;;;;;24.45;15.85;;;-14.60;99.90;;;;;;4407224;32;20089;-64
2022/01/25 00:54:01;;;;;;;23.05;13.23;;;-14.50;99.90;;;;;;4395163;32;20069;-65
2022/01/25 00:56:34;;;;;;;15.35;10.48;;;-14.60;99.90;;;;;;4407355;32;20507;-65
2022/01/25 00:59:07;;;;;;;19.92;12.57;;;-14.40;99.90;;;;;;4394539;32;20519;-65
2022/01/25 01:01:35;;;;;;;23.62;14.85;;;-14.60;99.90;;;;;;4394218;32;20077;-63
2022/01/25 01:04:04;;;;;;;22.15;14.40;;;-14.50;99.90;;;;;;4408462;32;20095;-63
2022/01/25 01:06:30;;;;;;;25.95;16.10;;;-14.40;99.90;;;;;;4406732;32;20544;-64
2022/01/25 01:08:57;;;;;;;26.77;17.55;;;-14.40;99.90;;;;;;4408526;32;20153;-63
2022/01/25 01:11:37;;;;;;;33.58;19.58;;;-14.30;99.90;;;;;;4406792;32;20083;-63
2022/01/25 01:17:10;;;;;;;37.83;21.58;;;-14.50;99.90;;;;;;4395017;32;20092;-65
2022/01/25 01:30:48;;;;;;;33.45;18.77;;;-14.40;99.90;;;;;;4406142;32;20496;-66
2022/01/25 01:43:38;;;;;;;34.47;18.50;;;-14.70;99.90;;;;;;4406538;32;20542;-65
2022/01/25 01:48:56;;;;;;;32.28;18.75;;;-14.70;99.90;;;;;;4406695;32;20095;-64
2022/01/25 01:53:55;;;;;;;30.48;18.02;;;-14.80;99.90;;;;;;4394631;32;20192;-64
2022/01/25 01:56:23;;;;;;;26.75;16.37;;;-14.80;99.90;;;;;;4407732;32;20093;-64
2022/01/25 01:58:52;;;;;;;28.92;16.80;;;-14.60;99.90;;;;;;4394073;32;20561;-63
2022/01/25 02:01:19;;;;;;;31.27;16.98;;;-14.50;99.90;;;;;;4393607;32;20092;-64
2022/01/25 02:03:46;;;;;;;22.05;13.60;;;-14.30;99.90;;;;;;4407846;32;20081;-63
2022/01/25 02:06:13;;;;;;;27.58;15.98;;;-14.30;99.90;;;;;;4381358;32;20090;-63
2022/01/25 02:08:39;;;;;;;26.08;14.23;;;-14.20;99.90;;;;;;4408261;32;20160;-64
2022/01/25 02:11:06;;;;;;;25.50;14.10;;;-14.30;99.90;;;;;;4381661;32;20089;-64
2022/01/25 02:13:33;;;;;;;24.00;13.75;;;-14.20;99.90;;;;;;4406122;32;20503;-63
2022/01/25 02:16:04;;;;;;;24.30;14.35;;;-14.00;99.90;;;;;;4406340;32;20093;-63
2022/01/25 02:24:00;;;;;;;25.92;15.48;;;-13.90;99.90;;;;;;4407843;32;20499;-65
2022/01/25 02:26:27;;;;;;;21.60;13.20;;;-13.80;99.90;;;;;;4406127;32;20246;-65
2022/01/25 02:28:53;;;;;;;25.88;14.35;;;-13.70;99.90;;;;;;4393211;32;20085;-65
2022/01/25 02:31:20;;;;;;;21.45;13.43;;;-13.60;99.90;;;;;;4380143;32;20148;-65
2022/01/25 02:33:46;;;;;;;20.27;12.60;;;-13.40;99.90;;;;;;4393618;32;20160;-63
2022/01/25 02:36:27;;;;;;;20.20;12.20;;;-13.40;99.90;;;;;;4393636;32;20263;-63
2022/01/25 02:38:55;;;;;;;18.20;11.23;;;-13.40;99.90;;;;;;4406078;32;20092;-64
2022/01/25 02:41:23;;;;;;;18.48;11.77;;;-13.30;99.90;;;;;;4392871;32;20153;-65
2022/01/25 02:43:51;;;;;;;22.85;13.45;;;-13.40;99.90;;;;;;4393454;32;20081;-64
2022/01/25 02:48:29;;;;;;;20.88;11.98;;;-13.30;99.90;;;;;;4394251;32;20077;-65
2022/01/25 02:49:08;;;;;;;18.52;10.60;;;-13.20;99.90;;;;;;4395687;32;20189;-64
2022/01/25 02:51:40;;;;;;;15.88;9.82;;;-13.10;99.90;;;;;;4393263;32;20089;-64
2022/01/25 02:54:08;;;;;;;15.48;10.27;;;-13.10;99.90;;;;;;4407268;32;20065;-64
2022/01/25 02:56:43;;;;;;;19.87;11.60;;;-12.90;99.90;;;;;;4393299;32;20073;-65
2022/01/25 02:59:11;;;;;;;21.25;11.90;;;-13.00;99.90;;;;;;4392896;32;20606;-65
2022/01/25 03:01:39;;;;;;;20.17;11.88;;;-12.80;99.90;;;;;;4405522;32;20120;-64
2022/01/25 03:04:06;;;;;;;19.40;12.20;;;-12.70;99.90;;;;;;4380321;32;20085;-65
2022/01/25 03:06:34;;;;;;;25.08;13.15;;;-12.80;99.90;;;;;;4392668;32;20081;-63
2022/01/25 03:09:03;;;;;;;21.73;12.50;;;-12.70;99.90;;;;;;4380186;32;20074;-64
2022/01/25 03:11:29;;;;;;;22.40;13.90;;;-12.70;99.90;;;;;;4406763;32;20161;-65
2022/01/25 03:13:59;;;;;;;23.40;13.23;;;-12.90;99.90;;;;;;4405026;32;20092;-63
2022/01/25 03:16:37;;;;;;;23.60;13.95;;;-13.00;99.90;;;;;;4405789;32;20097;-64
2022/01/25 03:20:17;;;;;;;22.87;14.13;;;-13.10;99.90;;;;;;4405014;32;20512;-64
2022/01/25 03:22:15;;;;;;;21.30;13.88;;;-12.90;99.90;;;;;;4392283;32;20084;-63
2022/01/25 03:24:55;;;;;;;24.20;14.40;;;-13.50;99.90;;;;;;3831629;37;20054;-65
2022/01/25 03:27:21;;;;;;;22.17;13.98;;;-13.30;99.90;;;;;;4390895;32;20581;-64
2022/01/25 03:29:47;;;;;;;21.80;13.02;;;-13.20;99.90;;;;;;4390671;32;20178;-64
2022/01/25 03:32:14;;;;;;;24.30;14.52;;;-13.30;99.90;;;;;;4378779;32;20100;-63
2022/01/25 03:34:41;;;;;;;25.42;16.10;;;-13.30;99.90;;;;;;4390639;32;20453;-65
2022/01/25 03:37:07;;;;;;;27.58;16.37;;;-13.30;99.90;;;;;;4377891;32;20061;-66
2022/01/25 03:39:33;;;;;;;25.75;16.37;;;-13.50;99.90;;;;;;4404587;32;20088;-64
2022/01/25 03:42:00;;;;;;;28.02;16.98;;;-13.20;99.90;;;;;;4377614;32;20080;-63
2022/01/25 03:44:26;;;;;;;26.45;16.12;;;-12.90;99.90;;;;;;4390122;32;20170;-63
2022/01/25 03:47:01;;;;;;;24.35;15.40;;;-12.60;99.90;;;;;;4390231;32;20077;-63
2022/01/25 03:52:13;;;;;;;23.05;12.93;;;-12.60;99.90;;;;;;4380783;32;20073;-63
2022/01/25 03:54:40;;;;;;;19.87;12.60;;;-12.60;99.90;;;;;;4379012;32;20089;-64
2022/01/25 03:57:06;;;;;;;18.27;11.50;;;-12.60;99.90;;;;;;4377728;32;20078;-64
2022/01/25 03:59:33;;;;;;;19.48;12.93;;;-12.60;99.90;;;;;;4365266;32;20500;-63
2022/01/25 04:01:59;;;;;;;18.23;11.98;;;-12.50;99.90;;;;;;4390559;32;20101;-63
2022/01/25 04:04:26;;;;;;;19.20;11.88;;;-12.50;99.90;;;;;;4404466;32;20070;-64
2022/01/25 04:06:54;;;;;;;20.02;11.85;;;-12.50;99.90;;;;;;4390228;32;20069;-64
2022/01/25 04:09:21;;;;;;;18.40;11.30;;;-12.40;99.90;;;;;;4365367;32;20101;-63
2022/01/25 04:11:48;;;;;;;17.70;11.00;;;-12.40;99.90;;;;;;4390598;32;20058;-64
2022/01/25 04:14:14;;;;;;;18.65;11.88;;;-12.40;99.90;;;;;;4377318;32;20085;-64
2022/01/25 04:19:38;;;;;;;20.80;13.25;;;-12.30;99.90;;;;;;4390614;32;20069;-64
2022/01/25 04:27:34;;;;;;;41.88;24.95;;;-12.60;99.90;;;;;;4364713;32;20176;-64
2022/01/25 04:30:01;;;;;;;44.17;28.45;;;-12.80;99.90;;;;;;4362237;32;20089;-64
2022/01/25 04:32:34;;;;;;;56.20;32.05;;;-13.00;99.90;;;;;;4349740;32;20155;-64
2022/01/25 04:35:12;;;;;;;56.35;33.83;;;-13.30;99.90;;;;;;4383582;32;20429;-64
2022/01/25 04:49:32;;;;;;;47.92;27.80;;;-13.60;99.90;;;;;;4378491;32;20583;-62
2022/01/25 05:02:32;;;;;;;56.50;30.52;;;-13.60;99.90;;;;;;4352969;32;20082;-63
2022/01/25 05:05:09;;;;;;;53.20;29.10;;;-13.50;99.90;;;;;;4341389;32;20081;-63
2022/01/25 05:07:53;;;;;;;54.55;28.80;;;-13.90;99.90;;;;;;4352871;32;20078;-64
2022/01/25 05:10:20;;;;;;;40.12;22.92;;;-13.80;99.90;;;;;;4366747;32;20596;-65
2022/01/25 05:12:53;;;;;;;39.22;22.30;;;-14.00;99.90;;;;;;4339792;32;20097;-63
2022/01/25 05:15:25;;;;;;;35.97;19.27;;;-14.20;99.90;;;;;;4364904;32;20186;-63
2022/01/25 05:23:21;;;;;;;38.78;23.08;;;-14.00;99.90;;;;;;4377393;32;20071;-64
2022/01/25 05:25:48;;;;;;;31.85;19.08;;;-13.80;99.90;;;;;;4378529;32;20156;-63
2022/01/25 05:28:14;;;;;;;23.38;15.13;;;-14.40;99.90;;;;;;4377947;32;20449;-63
2022/01/25 05:30:41;;;;;;;25.58;15.75;;;-14.60;99.90;;;;;;4351899;32;20527;-63
2022/01/25 05:33:07;;;;;;;23.15;14.85;;;-14.70;99.90;;;;;;4352028;32;20519;-63
2022/01/25 05:35:33;;;;;;;24.20;15.02;;;-14.70;99.90;;;;;;4363585;32;20062;-65
2022/01/25 05:38:00;;;;;;;24.20;14.45;;;-14.80;99.90;;;;;;4363636;32;20506;-63
2022/01/25 05:40:56;;;;;;;28.67;15.50;;;-14.60;99.90;;;;;;4363997;32;20161;-64
2022/01/25 05:48:14;;;;;;;23.10;13.35;;;-14.40;99.90;;;;;;4351107;32;20164;-64
2022/01/25 05:50:41;;;;;;;21.25;12.85;;;-14.50;99.90;;;;;;4364182;32;20484;-63
2022/01/25 05:53:07;;;;;;;22.50;12.57;;;-14.40;99.90;;;;;;4338985;32;20090;-63
2022/01/25 05:55:33;;;;;;;24.87;13.10;;;-14.10;99.90;;;;;;4351841;32;20089;-63
2022/01/25 05:58:00;;;;;;;21.90;13.02;;;-13.90;99.90;;;;;;4363272;32;20090;-64
2022/01/25 06:00:26;;;;;;;19.45;12.75;;;-14.10;99.90;;;;;;4338580;32;20105;-64
2022/01/25 06:02:55;;;;;;;21.92;13.48;;;-13.90;99.90;;;;;;4363861;32;20082;-63
2022/01/25 06:05:23;;;;;;;21.73;12.75;;;-13.70;99.90;;;;;;4351624;32;20113;-63
2022/01/25 06:07:50;;;;;;;22.67;14.82;;;-13.80;99.90;;;;;;4351487;32;20070;-64
2022/01/25 06:10:18;;;;;;;23.08;13.75;;;-13.90;99.90;;;;;;4378080;32;20085;-64
2022/01/25 06:12:45;;;;;;;22.00;13.70;;;-13.90;99.90;;;;;;4339018;32;20143;-63
2022/01/25 06:15:12;;;;;;;23.67;14.60;;;-13.70;99.90;;;;;;4338453;32;20074;-64
2022/01/25 06:17:39;;;;;;;25.52;14.77;;;-13.80;99.90;;;;;;4351044;32;20105;-63
2022/01/25 06:20:07;;;;;;;25.12;15.85;;;-13.80;99.90;;;;;;4351166;32;20082;-64
2022/01/25 06:22:34;;;;;;;25.50;15.63;;;-13.90;99.90;;;;;;4338247;32;20078;-63
2022/01/25 06:25:00;;;;;;;27.90;16.15;;;-13.80;99.90;;;;;;4350482;32;20158;-62
2022/01/25 06:27:27;;;;;;;26.08;15.93;;;-13.70;99.90;;;;;;4362882;32;20090;-63
2022/01/25 06:29:53;;;;;;;25.90;15.55;;;-13.60;99.90;;;;;;4377815;32;20090;-63
2022/01/25 06:32:20;;;;;;;25.73;15.77;;;-13.50;99.90;;;;;;4363671;32;20089;-63
2022/01/25 06:34:47;;;;;;;23.87;15.38;;;-13.50;99.90;;;;;;4353945;32;20082;-63
2022/01/25 06:37:14;;;;;;;23.98;16.08;;;-13.40;99.90;;;;;;4363297;32;20174;-63
2022/01/25 06:39:41;;;;;;;25.50;15.70;;;-13.40;99.90;;;;;;4376900;32;20078;-63
2022/01/25 06:42:09;;;;;;;29.73;16.48;;;-13.20;99.90;;;;;;4350764;32;20081;-64
2022/01/25 06:44:37;;;;;;;27.25;16.95;;;-13.40;99.90;;;;;;4363115;32;20078;-66
2022/01/25 06:47:04;;;;;;;26.60;16.27;;;-13.10;99.90;;;;;;4362819;32;20069;-63
2022/01/25 06:49:31;;;;;;;27.50;16.80;;;-13.00;99.90;;;;;;4363130;32;20088;-63
2022/01/25 06:51:58;;;;;;;25.50;16.25;;;-12.80;99.90;;;;;;4376518;32;20093;-63
2022/01/25 06:54:24;;;;;;;27.17;17.10;;;-12.80;99.90;;;;;;4350319;32;20090;-63
2022/01/25 06:56:51;;;;;;;27.30;17.37;;;-13.00;99.90;;;;;;4350214;32;20081;-63
2022/01/25 06:59:17;;;;;;;30.83;17.40;;;-12.80;99.90;;;;;;4337842;32;20570;-66
2022/01/25 07:01:44;;;;;;;29.00;17.80;;;-13.10;99.90;;;;;;4350562;32;20077;-63
2022/01/25 07:04:11;;;;;;;31.08;17.87;;;-13.20;99.90;;;;;;4350291;32;20149;-63
2022/01/25 07:06:37;;;;;;;29.65;18.00;;;-13.20;99.90;;;;;;4362527;32;20073;-63
2022/01/25 07:09:04;;;;;;;28.15;17.52;;;-13.10;99.90;;;;;;4362575;32;20151;-64
2022/01/25 07:11:30;;;;;;;29.67;17.65;;;-12.90;99.90;;;;;;4362470;32;20112;-63
2022/01/25 07:13:57;;;;;;;28.80;16.12;;;-12.30;99.90;;;;;;4349959;32;20089;-63
2022/01/25 07:16:24;;;;;;;27.25;16.15;;;-12.40;99.90;;;;;;4350643;32;20090;-63
2022/01/25 07:18:51;;;;;;;24.37;16.20;;;-12.30;99.90;;;;;;4337592;32;20492;-64
2022/01/25 07:21:17;;;;;;;27.85;17.30;;;-12.50;99.90;;;;;;4362918;32;20086;-63
2022/01/25 07:23:44;;;;;;;25.67;16.87;;;-12.40;99.90;;;;;;4337967;32;20166;-64
2022/01/25 07:26:10;;;;;;;33.38;19.67;;;-12.20;99.90;;;;;;4350571;32;20161;-64
2022/01/25 07:28:37;;;;;;;37.80;23.42;;;-12.50;99.90;;;;;;4337874;32;20074;-63
2022/01/25 07:31:04;;;;;;;35.03;22.27;;;-12.80;99.90;;;;;;4362224;32;20098;-63
2022/01/25 07:33:30;;;;;;;36.42;22.42;;;-12.40;99.90;;;;;;4362261;32;20593;-63
2022/01/25 07:35:57;;;;;;;36.80;22.95;;;-12.40;99.90;;;;;;4362041;32;20109;-63
2022/01/25 07:38:24;;;;;;;35.55;23.80;;;-12.40;99.90;;;;;;4349673;32;20512;-64
2022/01/25 07:40:50;;;;;;;52.75;29.83;;;-12.50;99.90;;;;;;4350341;32;20489;-62
2022/01/25 07:43:17;;;;;;;57.03;33.58;;;-12.60;99.90;;;;;;4337231;32;20538;-63
2022/01/25 07:45:50;;;;;;;70.55;38.97;;;-13.10;99.90;;;;;;4337643;32;20248;-64
2022/01/25 07:48:16;;;;;;;71.55;42.88;;;-13.00;99.90;;;;;;4363192;32;20080;-63
2022/01/25 07:50:43;;;;;;;58.42;34.28;;;-12.70;99.90;;;;;;4362118;32;20070;-63
2022/01/25 07:53:10;;;;;;;75.10;45.50;;;-12.80;99.90;;;;;;4362039;32;20101;-63
2022/01/25 07:55:36;;;;;;;79.12;47.60;;;-12.90;99.90;;;;;;4350209;32;20464;-63
2022/01/25 07:58:03;;;;;;;84.07;48.60;;;-13.10;99.90;;;;;;4350052;32;20086;-63
2022/01/25 08:00:30;;;;;;;76.93;44.40;;;-12.80;99.90;;;;;;4349741;32;20096;-63
2022/01/25 08:02:57;;;;;;;72.43;44.13;;;-12.50;99.90;;;;;;4337690;32;20098;-63
2022/01/25 08:05:26;;;;;;;74.97;43.60;;;-12.40;99.90;;;;;;4362504;32;20081;-64
2022/01/25 08:07:54;;;;;;;82.07;44.47;;;-12.90;99.90;;;;;;4363316;32;20078;-63
2022/01/25 08:10:23;;;;;;;75.22;42.15;;;-13.10;99.90;;;;;;4377550;32;20084;-64
2022/01/25 08:12:49;;;;;;;77.72;42.17;;;-13.10;99.90;;;;;;4352611;32;20089;-63
2022/01/25 08:15:16;;;;;;;72.70;40.70;;;-13.10;99.90;;;;;;4352250;32;20081;-63
2022/01/25 08:17:43;;;;;;;62.80;37.70;;;-13.30;99.90;;;;;;4352204;32;20534;-63
2022/01/25 08:20:10;;;;;;;63.10;36.78;;;-13.10;99.90;;;;;;4339838;32;20182;-64
2022/01/25 08:22:37;;;;;;;64.70;39.45;;;-13.20;99.90;;;;;;4340050;32;20073;-63
2022/01/25 08:25:05;;;;;;;70.30;39.25;;;-13.00;99.90;;;;;;4352199;32;20524;-64
2022/01/25 08:27:32;;;;;;;69.05;41.92;;;-12.60;99.90;;;;;;4364697;32;20072;-63
2022/01/25 08:29:58;;;;;;;71.95;39.35;;;-12.80;99.90;;;;;;4352323;32;20100;-63
2022/01/25 08:32:25;;;;;;;61.72;36.70;;;-12.70;99.90;;;;;;4352147;32;20141;-63
2022/01/25 08:34:51;;;;;;;69.62;40.38;;;-12.60;99.90;;;;;;4352220;32;20077;-63
2022/01/25 08:37:18;;;;;;;59.65;34.97;;;-12.60;99.90;;;;;;4364306;32;20078;-63
2022/01/25 08:39:44;;;;;;;62.50;37.05;;;-12.80;99.90;;;;;;4352458;32;20082;-63
2022/01/25 08:42:11;;;;;;;64.75;37.70;;;-12.80;99.90;;;;;;4339884;32;20183;-64
2022/01/25 08:44:39;;;;;;;67.12;37.42;;;-12.80;99.90;;;;;;4352970;32;20098;-63
2022/01/25 08:47:07;;;;;;;58.53;34.92;;;-12.60;99.90;;;;;;4364680;32;20175;-64
2022/01/25 08:49:35;;;;;;;59.50;33.42;;;-12.40;99.90;;;;;;4352418;32;20097;-63
2022/01/25 08:52:02;;;;;;;57.90;36.88;;;-12.50;99.90;;;;;;4353046;32;20161;-63
2022/01/25 08:54:28;;;;;;;62.88;36.47;;;-12.40;99.90;;;;;;4353878;32;20090;-65
2022/01/25 08:56:55;;;;;;;64.70;36.95;;;-12.50;99.90;;;;;;4378263;32;20158;-63
2022/01/25 08:59:22;;;;;;;61.15;34.25;;;-12.40;99.90;;;;;;4378239;32;20190;-64
2022/01/25 09:01:49;;;;;;;58.72;34.03;;;-12.30;99.90;;;;;;4378378;32;20120;-63
2022/01/25 09:04:16;;;;;;;57.33;33.65;;;-12.50;99.90;;;;;;4351530;32;20051;-64
2022/01/25 09:06:42;;;;;;;57.17;33.70;;;-12.60;99.90;;;;;;4351644;32;20073;-64
2022/01/25 09:09:11;;;;;;;54.38;30.40;;;-12.70;99.90;;;;;;4339175;32;20685;-63
2022/01/25 09:11:40;;;;;;;58.33;31.58;;;-12.60;99.90;;;;;;4339524;32;20445;-64
2022/01/25 09:14:08;;;;;;;55.12;31.20;;;-12.80;99.90;;;;;;4364077;32;20086;-64
2022/01/25 09:16:35;;;;;;;52.25;29.95;;;-12.70;99.90;;;;;;4363969;32;20077;-64
2022/01/25 09:19:03;;;;;;;54.95;32.35;;;-12.70;99.90;;;;;;4364513;32;20086;-65
2022/01/25 09:21:29;;;;;;;57.00;33.10;;;-12.50;99.90;;;;;;4351687;32;20160;-65
2022/01/25 09:23:56;;;;;;;51.37;30.55;;;-12.70;99.90;;;;;;4339912;32;20090;-63
2022/01/25 09:26:23;;;;;;;49.47;31.33;;;-12.50;99.90;;;;;;4340034;32;20086;-63
2022/01/25 09:28:53;;;;;;;50.78;31.35;;;-12.70;99.90;;;;;;4351273;32;20205;-63
2022/01/25 09:31:19;;;;;;;61.70;33.88;;;-12.50;99.90;;;;;;4351590;32;20110;-63
2022/01/25 09:33:46;;;;;;;61.22;35.22;;;-12.40;99.90;;;;;;4339282;32;20070;-63
2022/01/25 09:36:12;;;;;;;63.75;38.85;;;-12.00;99.90;;;;;;4363963;32;20073;-63
2022/01/25 09:38:39;;;;;;;65.68;36.83;;;-12.00;99.90;;;;;;4351327;32;20086;-63
2022/01/25 09:41:05;;;;;;;59.50;35.38;;;-12.00;99.90;;;;;;4364219;32;20516;-63
2022/01/25 09:44:28;;;;;;;59.97;34.43;;;-12.10;99.90;;;;;;3814452;37;20063;-62
2022/01/25 09:46:56;;;;;;;56.08;34.65;;;-11.90;99.90;;;;;;4393313;32;20248;-64
2022/01/25 09:49:23;;;;;;;62.92;35.95;;;-11.40;99.90;;;;;;4393933;32;20089;-64
2022/01/25 09:51:50;;;;;;;61.10;38.17;;;-11.40;99.90;;;;;;4367041;32;20074;-64
2022/01/25 09:54:17;;;;;;;58.53;38.45;;;-11.70;99.90;;;;;;4390638;32;20503;-64
2022/01/25 09:56:43;;;;;;;61.63;36.70;;;-11.70;99.90;;;;;;4390322;32;20088;-63
2022/01/25 09:59:09;;;;;;;60.90;38.10;;;-11.50;99.90;;;;;;4378045;32;20082;-64
2022/01/25 10:01:37;;;;;;;60.80;38.05;;;-11.60;99.90;;;;;;4390725;32;20081;-63
2022/01/25 10:04:05;;;;;;;51.75;30.98;;;-11.50;99.90;;;;;;4391371;32;20070;-63
2022/01/25 10:06:34;;;;;;;54.83;34.38;;;-11.10;99.90;;;;;;4390590;32;20499;-64
2022/01/25 10:09:01;;;;;;;38.47;23.92;;;-11.20;99.90;;;;;;4378844;32;20092;-64
2022/01/25 10:11:27;;;;;;;39.00;22.92;;;-10.40;99.90;;;;;;4378186;32;20073;-63
2022/01/25 10:13:57;;;;;;;44.15;27.45;;;-10.00;99.90;;;;;;4390002;32;20077;-64
2022/01/25 10:16:34;;;;;;;38.03;22.20;;;-9.80;99.90;;;;;;4378056;32;20153;-62
2022/01/25 10:19:05;;;;;;;;;;;-9.90;99.90;;;;;;4377960;32;20096;-63
2022/01/25 10:21:37;;;;;;;19.67;11.88;;;-8.80;99.90;;;;;;4396715;32;20382;-65
2022/01/25 10:24:19;;;;;;;10.02;6.22;;;-8.70;99.90;;;;;;4374880;32;20077;-65
2022/01/25 10:26:59;;;;;;;9.50;5.97;;;-8.40;99.90;;;;;;4375155;32;20073;-64
2022/01/25 10:29:34;;;;;;;11.23;6.82;;;-8.20;99.90;;;;;;4374999;32;20178;-64
2022/01/25 10:32:16;;;;;;;8.07;5.05;;;-7.90;99.90;;;;;;4375314;32;20143;-64
2022/01/25 10:34:48;;;;;;;8.35;4.95;;;-8.10;99.90;;;;;;4363246;32;20081;-64
2022/01/25 10:37:20;;;;;;;8.50;5.40;;;-7.80;99.90;;;;;;4376178;32;20090;-64
2022/01/25 10:39:51;;;;;;;9.13;4.62;;;-8.10;99.90;;;;;;4362918;32;20073;-63
2022/01/25 10:42:28;;;;;;;41.88;23.20;;;-8.10;99.90;;;;;;4375132;32;20132;-63
2022/01/25 10:45:05;;;;;;;78.12;40.88;;;-8.20;99.90;;;;;;4350001;32;20085;-63
2022/01/25 10:47:52;;;;;;;63.53;37.78;;;-9.10;99.90;;;;;;4375075;32;20093;-63
2022/01/25 10:50:35;;;;;;;59.80;37.45;;;-9.40;99.90;;;;;;4362114;32;20066;-63
2022/01/25 10:53:16;;;;;;;62.25;37.38;;;-9.80;99.90;;;;;;4374681;32;20088;-63
2022/01/25 10:55:47;;;;;;;64.10;38.33;;;-9.30;99.90;;;;;;4378847;32;20162;-63
2022/01/25 10:58:15;;;;;;;63.25;37.05;;;-9.00;99.90;;;;;;4364598;32;20091;-63
2022/01/25 11:00:49;;;;;;;64.57;38.53;;;-9.00;99.90;;;;;;4351876;32;20113;-64
2022/01/25 11:03:35;;;;;;;63.22;38.45;;;-9.40;99.90;;;;;;4364525;32;20070;-63
2022/01/25 11:06:22;;;;;;;59.08;34.80;;;-9.20;99.90;;;;;;4351899;32;20085;-65
2022/01/25 11:08:53;;;;;;;62.83;38.42;;;-9.40;99.90;;;;;;4364034;32;20460;-63
2022/01/25 11:11:45;;;;;;;63.22;39.85;;;-9.00;99.90;;;;;;4365009;32;20089;-63
2022/01/25 11:17:00;;;;;;;50.38;31.45;;;-9.30;99.90;;;;;;4369771;32;20151;-63
2022/01/25 11:19:26;;;;;;;54.55;31.10;;;-9.60;99.90;;;;;;4378125;32;20066;-63
2022/01/25 11:21:56;;;;;;;51.33;27.62;;;-9.90;99.90;;;;;;4377380;32;20508;-63
2022/01/25 11:24:24;;;;;;;40.78;21.83;;;-9.80;99.90;;;;;;4352595;32;20150;-63
2022/01/25 11:26:53;;;;;;;50.30;30.05;;;-9.80;99.90;;;;;;4364475;32;20086;-63
2022/01/25 11:29:19;;;;;;;49.72;29.95;;;-9.80;99.90;;;;;;4363850;32;20066;-63
2022/01/25 11:32:03;;;;;;;40.95;22.15;;;-10.00;99.90;;;;;;4363721;32;20079;-64
2022/01/25 11:34:33;;;;;;;41.65;22.42;;;-9.80;99.90;;;;;;4364110;32;20496;-64
2022/01/25 11:37:05;;;;;;;42.97;24.80;;;-9.50;99.90;;;;;;4363928;32;20452;-63
2022/01/25 11:39:32;;;;;;;40.28;23.52;;;-9.50;99.90;;;;;;4351563;32;20236;-63
2022/01/25 11:42:10;;;;;;;48.90;28.33;;;-9.90;99.90;;;;;;4364027;32;20528;-63
2022/01/25 11:44:47;;;;;;;51.28;29.02;;;-10.00;99.90;;;;;;4351077;32;20155;-64
2022/01/25 11:47:17;;;;;;;45.53;27.70;;;-10.00;99.90;;;;;;4377891;32;20078;-65
2022/01/25 11:50:00;;;;;;;50.85;28.42;;;-10.00;99.90;;;;;;4363807;32;20078;-63
2022/01/25 11:52:29;;;;;;;48.75;30.92;;;-10.20;99.90;;;;;;4351478;32;20094;-63
2022/01/25 11:55:30;;;;;;;50.45;29.50;;;-10.40;99.90;;;;;;4350994;32;20553;-64
2022/01/25 11:58:07;;;;;;;53.92;30.40;;;-10.50;99.90;;;;;;4364751;32;20090;-63
2022/01/25 12:00:59;;;;;;;50.53;31.23;;;-10.60;99.90;;;;;;4364276;32;20588;-62
2022/01/25 12:03:37;;;;;;;56.00;33.20;;;-10.50;99.90;;;;;;4363757;32;20527;-64
2022/01/25 12:06:22;;;;;;;53.70;32.75;;;-10.40;99.90;;;;;;4350702;32;20135;-63
2022/01/25 12:09:17;;;;;;;55.78;33.20;;;-10.40;99.90;;;;;;4377501;32;20092;-63
2022/01/25 12:12:01;;;;;;;53.97;32.90;;;-10.40;99.90;;;;;;4363320;32;20085;-64
2022/01/25 12:14:39;;;;;;;58.38;34.00;;;-10.60;99.90;;;;;;4377633;32;20153;-65
2022/01/25 12:17:05;;;;;;;59.42;36.20;;;-10.60;99.90;;;;;;4351432;32;20100;-64
2022/01/25 12:19:44;;;;;;;46.88;28.60;;;-10.60;99.90;;;;;;4377042;32;20468;-63
2022/01/25 12:22:27;;;;;;;55.10;32.47;;;-10.40;99.90;;;;;;4351485;32;20539;-65
2022/01/25 12:25:27;;;;;;;54.47;32.53;;;-10.50;99.90;;;;;;4363359;32;20078;-65
2022/01/25 12:28:07;;;;;;;48.35;29.75;;;-10.70;99.90;;;;;;4363247;32;20089;-63
2022/01/25 12:30:40;;;;;;;49.38;28.65;;;-10.80;99.90;;;;;;4364057;32;20070;-63
2022/01/25 12:33:46;;;;;;;52.40;30.30;;;-10.60;99.90;;;;;;4363833;32;20077;-63
2022/01/25 12:36:13;;;;;;;50.08;31.25;;;-10.90;99.90;;;;;;4304089;33;20079;-64
2022/01/25 12:38:45;;;;;;;55.25;32.05;;;-10.70;99.90;;;;;;4304227;33;20573;-63
2022/01/25 12:41:23;;;;;;;55.08;34.38;;;-10.90;99.90;;;;;;4323688;32;20102;-64
2022/01/25 12:43:53;;;;;;;56.37;35.13;;;-10.80;99.90;;;;;;4360654;32;20082;-64
2022/01/25 12:46:49;;;;;;;62.65;37.10;;;-11.00;99.90;;;;;;4348055;32;20552;-64
2022/01/25 12:49:20;;;;;;;66.10;38.40;;;-11.20;99.90;;;;;;4347648;32;20078;-63
2022/01/25 12:51:51;;;;;;;62.95;38.50;;;-11.20;99.90;;;;;;4360600;32;20509;-63
2022/01/25 12:54:17;;;;;;;59.88;36.85;;;-11.30;99.90;;;;;;4372780;32;20082;-63
2022/01/25 12:56:50;;;;;;;56.97;36.08;;;-11.60;99.90;;;;;;4360210;32;20090;-63
2022/01/25 12:59:23;;;;;;;61.08;35.03;;;-11.50;99.90;;;;;;4347748;32;20088;-63
2022/01/25 13:01:52;;;;;;;53.90;32.72;;;-11.30;99.90;;;;;;4348378;32;20177;-64
2022/01/25 13:04:18;;;;;;;52.42;32.95;;;-11.40;99.90;;;;;;4360240;32;20078;-64
2022/01/25 13:06:50;;;;;;;54.08;32.08;;;-11.40;99.90;;;;;;4348115;32;20158;-64
2022/01/25 13:09:29;;;;;;;48.22;26.50;;;-11.50;99.90;;;;;;4360429;32;20066;-64
2022/01/25 13:14:45;;;;;;;40.33;24.58;;;-12.00;99.90;;;;;;4361661;32;20493;-64
2022/01/25 13:17:22;;;;;;;39.15;24.33;;;-11.90;99.90;;;;;;4349321;32;20154;-64
2022/01/25 13:19:58;;;;;;;38.55;25.27;;;-11.80;99.90;;;;;;4373184;32;20074;-62
2022/01/25 13:22:39;;;;;;;37.72;23.50;;;-11.80;99.90;;;;;;4348773;32;20066;-63
2022/01/25 13:27:56;;;;;;;;;;;-11.80;99.90;;;;;;4362760;32;20073;-64
2022/01/25 13:30:45;;;;;;;43.63;24.98;;;-11.70;99.90;;;;;;4349461;32;20392;-65
2022/01/25 13:33:19;;;;;;;44.75;25.30;;;-11.70;99.90;;;;;;4351683;32;20067;-63
2022/01/25 13:35:52;;;;;;;43.10;25.62;;;-11.70;99.90;;;;;;4362223;32;20133;-64
2022/01/25 13:38:36;;;;;;;40.47;24.20;;;-11.90;99.90;;;;;;4361888;32;20097;-64
2022/01/25 13:46:36;;;;;;;36.40;24.20;;;-12.30;99.90;;;;;;4362694;32;20100;-63
2022/01/25 13:49:14;;;;;;;40.55;24.60;;;-12.10;99.90;;;;;;4360526;32;20086;-63
2022/01/25 13:51:53;;;;;;;39.80;22.62;;;-12.10;99.90;;;;;;4348661;32;20157;-65
2022/01/25 13:54:23;;;;;;;37.70;23.27;;;-11.90;99.90;;;;;;4360527;32;20142;-64
2022/01/25 13:56:49;;;;;;;37.65;24.23;;;-12.00;99.90;;;;;;4348201;32;20073;-63
2022/01/25 13:59:17;;;;;;;39.15;23.42;;;-12.10;99.90;;;;;;4347486;32;20081;-64
2022/01/25 14:01:44;;;;;;;39.10;23.73;;;-12.10;99.90;;;;;;4347345;32;20448;-64
2022/01/25 14:04:19;;;;;;;42.58;25.83;;;-12.00;99.90;;;;;;4361160;32;20079;-63
2022/01/25 14:06:55;;;;;;;37.22;24.63;;;-12.00;99.90;;;;;;4347470;32;20086;-65
2022/01/25 14:09:29;;;;;;;38.35;24.90;;;-12.10;99.90;;;;;;4359703;32;20086;-65
2022/01/25 14:23:24;;;;;;;46.78;30.20;;;-12.40;99.90;;;;;;4360053;32;20166;-64
2022/01/25 14:26:01;;;;;;;51.60;32.80;;;-12.20;99.90;;;;;;4360132;32;20083;-65
2022/01/25 14:28:29;;;;;;;58.00;36.55;;;-12.30;99.90;;;;;;4361333;32;20145;-65
2022/01/25 14:30:58;;;;;;;69.22;41.20;;;-12.30;99.90;;;;;;4361744;32;20103;-63
2022/01/25 14:33:28;;;;;;;72.93;44.63;;;-12.50;99.90;;;;;;4375557;32;20078;-65
2022/01/25 14:36:00;;;;;;;104.90;58.58;;;-12.50;99.90;;;;;;4338122;32;20585;-64
2022/01/25 14:38:34;;;;;;;104.28;55.58;;;-12.60;99.90;;;;;;4362961;32;20092;-64
2022/01/25 14:41:16;;;;;;;96.63;53.03;;;-12.50;99.90;;;;;;4362249;32;20075;-64
2022/01/25 14:43:49;;;;;;;102.40;55.67;;;-12.40;99.90;;;;;;4349946;32;20086;-64
2022/01/25 14:46:26;;;;;;;96.70;54.15;;;-12.20;99.90;;;;;;4363929;32;20081;-63
2022/01/25 14:49:41;;;;;;;95.20;54.97;;;-12.20;99.90;;;;;;4350154;32;20078;-64
2022/01/25 14:52:09;;;;;;;88.10;49.58;;;-12.40;99.90;;;;;;4362711;32;20437;-65